Time;durP1;ratioP1;P1;durP2;ratioP2;P2;SDS_P1;SDS_P2;PMS_P1;PMS_P2;Temp;Humidity;BMP_temperature;BMP_pressure;BME280_temperature;BME280_humidity;BME280_pressure;Samples;Min_cycle;Max_cycle;Signal;HPM_P1;HPM_P2
2023/05/17 00:05:29;;;;;;;6.18;0.57;;;;;;;10.56;57.31;97860.63;10533681;28;20063;-75
2023/05/17 00:10:50;;;;;;;4.82;0.73;;;;;;;10.59;56.65;97865.03;10501235;28;20542;-75
2023/05/17 00:16:10;;;;;;;5.65;0.80;;;;;;;10.56;56.07;97865.47;10543434;28;20074;-74
2023/05/17 00:21:31;;;;;;;2.85;0.57;;;;;;;10.56;55.37;97873.84;10529232;28;20063;-75
2023/05/17 00:26:51;;;;;;;4.55;0.52;;;;;;;10.43;55.10;97877.88;10501939;28;20413;-75
2023/05/17 00:32:12;;;;;;;2.67;0.45;;;;;;;10.41;54.42;97880.50;10515378;28;20047;-75
2023/05/17 00:37:33;;;;;;;5.35;0.63;;;;;;;10.32;52.99;97886.81;10501612;28;20047;-74
2023/05/17 00:42:53;;;;;;;1.58;0.32;;;;;;;10.24;53.10;97884.22;10528931;28;20048;-74
2023/05/17 00:48:15;;;;;;;3.53;0.40;;;;;;;10.27;53.72;97880.25;10514653;28;20504;-75
2023/05/17 00:53:36;;;;;;;2.60;0.50;;;;;;;10.23;53.20;97876.41;10512622;28;20108;-74
2023/05/17 00:58:57;;;;;;;5.18;0.40;;;;;;;10.11;52.27;97878.31;10523946;28;20113;-75
2023/05/17 01:04:18;;;;;;;3.20;0.40;;;;;;;10.07;52.07;97900.34;10508655;28;20068;-75
2023/05/17 01:09:39;;;;;;;1.60;0.40;;;;;;;9.96;52.18;97905.22;10509961;28;20119;-75
2023/05/17 01:15:14;;;;;;;4.43;0.55;;;;;;;9.87;51.25;97936.59;10523509;28;20417;-74
2023/05/17 01:20:36;;;;;;;;;;;;;;;9.83;51.51;97933.50;10510090;28;20470;-75
2023/05/17 01:26:04;;;;;;;5.57;0.68;;;;;;;9.85;51.74;97930.91;10521314;28;19927;-75
2023/05/17 01:31:25;;;;;;;2.55;0.40;;;;;;;9.83;51.65;97933.50;10494689;28;20067;-75
2023/05/17 01:36:45;;;;;;;4.22;0.45;;;;;;;9.81;51.51;97927.78;10485377;28;20075;-75
2023/05/17 01:42:12;;;;;;;4.32;0.60;;;;;;;9.70;51.18;97939.53;10485391;28;20044;-75
2023/05/17 01:47:48;;;;;;;4.60;0.50;;;;;;;9.57;51.28;97939.94;10485187;28;20078;-74
2023/05/17 01:53:38;;;;;;;1.67;0.50;;;;;;;9.45;50.98;97946.06;10485157;28;20466;-74
2023/05/17 01:58:59;;;;;;;6.68;0.30;;;;;;;9.30;50.95;97934.47;10498162;28;20072;-75
2023/05/17 02:04:20;;;;;;;3.92;0.40;;;;;;;9.19;51.31;97930.19;10484065;28;20497;-74
2023/05/17 02:09:41;;;;;;;1.88;0.35;;;;;;;9.09;51.39;97940.53;10483615;28;20391;-74
2023/05/17 02:15:04;;;;;;;3.97;0.35;;;;;;;8.99;51.50;97945.34;10484002;28;20055;-75
2023/05/17 02:20:25;;;;;;;3.20;0.35;;;;;;;8.83;51.71;97944.81;10483671;28;20471;-74
2023/05/17 02:25:46;;;;;;;4.93;0.50;;;;;;;8.72;52.14;97946.09;10483384;28;20049;-75
2023/05/17 02:31:08;;;;;;;4.47;0.43;;;;;;;8.65;52.39;97941.34;10483388;28;20047;-74
2023/05/17 02:36:28;;;;;;;3.53;0.40;;;;;;;8.50;52.72;97952.72;10483272;28;20044;-74
2023/05/17 02:41:49;;;;;;;2.00;0.30;;;;;;;8.45;53.01;97951.63;10483064;28;20032;-74
2023/05/17 02:47:10;;;;;;;4.95;0.82;;;;;;;8.35;52.98;97958.44;10483019;28;20059;-77
2023/05/17 02:52:31;;;;;;;3.33;0.30;;;;;;;8.30;53.30;97960.16;10497274;28;20044;-76
2023/05/17 02:57:52;;;;;;;4.30;0.30;;;;;;;8.27;53.54;97975.94;10483189;28;20488;-75
2023/05/17 03:03:14;;;;;;;2.67;0.30;;;;;;;8.22;53.93;97979.72;10496758;28;20049;-75
2023/05/17 03:08:35;;;;;;;7.35;0.68;;;;;;;8.19;54.00;97982.88;10496686;28;20075;-76
2023/05/17 03:13:57;;;;;;;4.32;0.50;;;;;;;8.08;54.36;97986.16;10512435;28;20051;-76
2023/05/17 03:19:20;;;;;;;5.50;0.50;;;;;;;8.01;54.54;97987.72;10494278;28;20052;-75
2023/05/17 03:24:43;;;;;;;3.72;0.45;;;;;;;7.93;55.17;97995.41;10482622;28;20045;-75
2023/05/17 03:30:04;;;;;;;3.17;0.60;;;;;;;7.88;54.93;97999.88;10506771;28;20055;-75
2023/05/17 03:35:27;;;;;;;2.23;0.30;;;;;;;7.83;55.22;97995.31;10518785;28;20098;-76
2023/05/17 03:40:50;;;;;;;4.95;0.47;;;;;;;7.81;55.67;98002.72;10505463;28;20040;-75
2023/05/17 03:46:13;;;;;;;7.93;0.55;;;;;;;7.76;56.16;98004.47;10508098;28;20069;-75
2023/05/17 03:51:34;;;;;;;4.07;0.45;;;;;;;7.74;56.44;98004.31;10538096;28;20104;-75
2023/05/17 03:56:55;;;;;;;6.22;0.65;;;;;;;7.82;56.45;98007.00;10526513;28;20043;-75
2023/05/17 04:02:18;;;;;;;2.90;0.40;;;;;;;8.00;56.38;98025.91;10513062;28;20036;-75
2023/05/17 04:07:41;;;;;;;2.03;0.47;;;;;;;8.17;56.61;98010.53;10513683;28;20440;-75
2023/05/17 04:13:02;;;;;;;3.15;0.68;;;;;;;8.27;56.05;98016.91;10515051;28;20066;-75
2023/05/17 04:18:23;;;;;;;5.43;0.95;;;;;;;8.46;56.08;98035.84;10528752;28;20040;-76
2023/05/17 04:23:44;;;;;;;5.10;1.00;;;;;;;8.63;55.92;98024.69;10514763;28;20048;-75
2023/05/17 04:29:05;;;;;;;6.80;0.80;;;;;;;8.81;56.00;98034.47;10503902;28;20071;-76
2023/05/17 04:34:27;;;;;;;3.45;0.60;;;;;;;8.96;55.78;98046.72;10542091;28;20482;-75
2023/05/17 04:39:52;;;;;;;5.97;0.88;;;;;;;9.28;55.89;98054.09;10529050;28;20105;-75
2023/05/17 04:45:13;;;;;;;5.03;0.73;;;;;;;9.55;55.70;98065.91;10497243;28;20089;-76
2023/05/17 04:50:35;;;;;;;4.28;0.70;;;;;;;9.67;55.07;98074.50;10510918;28;20064;-75
2023/05/17 04:55:57;;;;;;;3.75;0.70;;;;;;;9.85;54.43;98087.03;10510566;28;20071;-75
2023/05/17 05:01:20;;;;;;;8.80;0.73;;;;;;;10.14;54.53;98100.31;10497502;28;20044;-74
2023/05/17 05:06:42;;;;;;;6.05;0.75;;;;;;;10.13;53.43;98121.13;10513804;28;20059;-75
2023/05/17 05:12:03;;;;;;;5.40;0.80;;;;;;;10.30;52.91;98129.44;10522725;28;20072;-75
2023/05/17 05:17:24;;;;;;;6.63;1.30;;;;;;;10.40;53.50;98132.97;10508266;28;20525;-76
2023/05/17 05:22:46;;;;;;;4.95;1.08;;;;;;;10.83;53.09;98136.09;10523117;28;20068;-75
2023/05/17 05:28:08;;;;;;;6.55;1.05;;;;;;;11.35;51.95;98152.38;10508611;28;20447;-75
2023/05/17 05:33:31;;;;;;;7.55;1.27;;;;;;;11.51;52.35;98139.56;10495760;28;20090;-75
2023/05/17 05:38:53;;;;;;;8.20;1.38;;;;;;;11.91;51.84;98152.09;10511739;28;20097;-75
2023/05/17 05:44:15;;;;;;;8.02;1.58;;;;;;;12.98;50.93;98146.56;10498682;28;20044;-76
2023/05/17 05:49:35;;;;;;;3.20;1.17;;;;;;;14.01;49.56;98150.25;10500831;28;20048;-75
2023/05/17 05:54:56;;;;;;;6.57;1.45;;;;;;;14.48;47.38;98161.50;10498802;28;20044;-76
2023/05/17 06:00:17;;;;;;;7.30;1.83;;;;;;;14.54;45.70;98164.63;10497859;28;20135;-76
2023/05/17 06:05:39;;;;;;;6.50;1.52;;;;;;;14.40;45.84;98177.09;10524571;28;20123;-74
2023/05/17 06:11:00;;;;;;;7.47;1.92;;;;;;;14.99;45.31;98184.09;10538172;28;20044;-76
2023/05/17 06:16:21;;;;;;;7.43;2.15;;;;;;;15.80;43.72;98181.53;10496130;28;20075;-75
2023/05/17 06:21:42;;;;;;;8.90;2.60;;;;;;;15.85;43.91;98194.47;10510247;28;20064;-77
2023/05/17 06:27:03;;;;;;;9.63;2.40;;;;;;;16.14;42.74;98189.00;10510302;28;20044;-76
2023/05/17 06:32:25;;;;;;;8.27;2.50;;;;;;;16.96;42.09;98185.44;10495126;28;20119;-79
2023/05/17 06:37:45;;;;;;;5.55;1.73;;;;;;;17.57;40.65;98198.94;10510694;28;20137;-76
2023/05/17 06:43:06;;;;;;;11.32;2.50;;;;;;;17.85;39.84;98199.56;10524743;28;20398;-75
2023/05/17 06:48:27;;;;;;;7.90;2.22;;;;;;;18.40;39.24;98204.84;10523649;28;20070;-74
2023/05/17 06:53:49;;;;;;;9.63;2.80;;;;;;;19.14;38.30;98201.72;10524006;28;20363;-74
2023/05/17 06:59:09;;;;;;;7.53;2.65;;;;;;;19.81;37.07;98203.66;10524062;28;20115;-73
2023/05/17 07:04:30;;;;;;;9.18;2.88;;;;;;;19.30;35.67;98215.03;10522883;28;20074;-74
2023/05/17 07:09:51;;;;;;;7.63;2.60;;;;;;;20.12;34.93;98202.72;10534403;28;20073;-74
2023/05/17 07:15:12;;;;;;;7.25;2.50;;;;;;;20.58;33.27;98200.16;10537872;28;20071;-74
2023/05/17 07:20:34;;;;;;;6.90;2.72;;;;;;;20.99;32.81;98219.28;10525167;28;20044;-74
2023/05/17 07:25:55;;;;;;;9.07;2.92;;;;;;;20.46;31.28;98219.53;10531497;28;20524;-74
2023/05/17 07:31:17;;;;;;;8.32;2.50;;;;;;;20.56;31.62;98214.25;10517370;28;20089;-75
2023/05/17 07:36:38;;;;;;;6.32;2.67;;;;;;;20.77;30.62;98213.59;10531283;28;20039;-70
2023/05/17 07:41:58;;;;;;;7.90;2.47;;;;;;;20.63;30.68;98218.75;10545899;28;20383;-79
2023/05/17 07:47:19;;;;;;;7.75;2.40;;;;;;;20.66;31.20;98217.47;10516673;28;20123;-79
2023/05/17 07:52:40;;;;;;;7.30;2.63;;;;;;;20.55;30.71;98218.47;10544316;28;20447;-73
2023/05/17 07:58:01;;;;;;;9.38;2.45;;;;;;;19.70;31.99;98222.38;10530190;28;20482;-74
2023/05/17 08:03:22;;;;;;;8.15;2.70;;;;;;;20.44;32.06;98219.47;10544263;28;20119;-73
2023/05/17 08:08:42;;;;;;;7.68;2.38;;;;;;;20.54;31.54;98223.41;10529835;28;20071;-74
2023/05/17 08:14:04;;;;;;;8.20;2.35;;;;;;;20.33;32.10;98226.84;10529563;28;20085;-73
2023/05/17 08:19:25;;;;;;;6.95;2.20;;;;;;;20.28;31.46;98230.94;10529420;28;20135;-73
2023/05/17 08:24:46;;;;;;;8.27;2.10;;;;;;;22.12;30.14;98226.47;10515636;28;20044;-74
2023/05/17 08:30:07;;;;;;;7.28;2.28;;;;;;;24.77;27.27;98228.00;10515332;28;20155;-74
2023/05/17 08:35:34;;;;;;;5.60;2.20;;;;;;;25.36;24.42;98241.22;10515903;28;20067;-74
2023/05/17 08:40:55;;;;;;;6.40;2.50;;;;;;;23.50;26.26;98235.91;10542903;28;20119;-74
2023/05/17 08:46:20;;;;;;;6.53;1.92;;;;;;;22.68;26.87;98238.75;10527284;28;20040;-73
2023/05/17 08:51:41;;;;;;;4.38;2.00;;;;;;;20.71;28.38;98261.59;10527073;28;20118;-74
2023/05/17 08:57:03;;;;;;;7.07;2.30;;;;;;;20.06;29.80;98247.09;10513848;28;20703;-74
2023/05/17 09:02:24;;;;;;;6.65;2.10;;;;;;;19.42;30.79;98243.88;10527342;28;20493;-73
2023/05/17 09:07:47;;;;;;;6.00;2.03;;;;;;;19.36;32.20;98243.59;10527723;28;20044;-74
2023/05/17 09:13:10;;;;;;;6.60;1.90;;;;;;;19.96;30.92;98250.25;10527407;28;20105;-74
2023/05/17 09:18:31;;;;;;;6.78;1.95;;;;;;;18.92;31.64;98262.28;10527296;28;20044;-74
2023/05/17 09:23:53;;;;;;;4.72;1.92;;;;;;;18.81;32.05;98264.66;10512929;28;20094;-74
2023/05/17 09:29:25;;;;;;;;;;;;;;;18.18;32.87;98258.28;10528853;28;20111;-74
2023/05/17 09:34:47;;;;;;;5.78;1.60;;;;;;;19.08;33.50;98263.69;10540760;28;19962;-74
2023/05/17 09:40:08;;;;;;;6.35;1.70;;;;;;;19.68;32.71;98264.75;10526027;28;20078;-74
2023/05/17 09:45:31;;;;;;;4.95;1.88;;;;;;;19.48;31.65;98269.56;10523367;28;20063;-75
2023/05/17 09:50:51;;;;;;;4.13;1.47;;;;;;;18.83;32.21;98275.34;10521848;28;20168;-74
2023/05/17 09:56:13;;;;;;;5.45;1.67;;;;;;;19.32;31.64;98274.59;10522570;28;20286;-74
2023/05/17 10:01:43;;;;;;;4.22;1.35;;;;;;;18.03;33.08;98280.22;10511399;28;20051;-74
2023/05/17 10:07:05;;;;;;;4.93;1.45;;;;;;;17.74;33.86;98268.94;10510614;28;20174;-70
2023/05/17 10:12:29;;;;;;;4.28;1.23;;;;;;;18.41;33.64;98257.19;10522767;28;20069;-73
2023/05/17 10:17:50;;;;;;;5.68;1.90;;;;;;;18.52;33.91;98259.81;10524869;28;20075;-72
2023/05/17 10:23:10;;;;;;;5.97;1.88;;;;;;;20.10;32.84;98264.25;10510975;28;20506;-74
2023/05/17 10:28:31;;;;;;;4.05;2.10;;;;;;;19.63;32.47;98262.44;10524575;28;20398;-70
2023/05/17 10:33:52;;;;;;;7.43;2.47;;;;;;;20.49;32.21;98257.94;10538512;28;20128;-70
2023/05/17 10:39:12;;;;;;;6.65;2.70;;;;;;;21.99;30.31;98265.13;10524702;28;20044;-74
2023/05/17 10:44:33;;;;;;;5.60;2.10;;;;;;;21.23;29.33;98264.06;10524346;28;20079;-74
2023/05/17 10:49:54;;;;;;;10.48;3.60;;;;;;;20.20;30.12;98258.97;10538349;28;20451;-74
2023/05/17 10:55:20;;;;;;;4.80;2.07;;;;;;;19.57;30.73;98265.72;10527249;28;20503;-74
2023/05/17 11:00:42;;;;;;;4.20;1.98;;;;;;;20.48;31.44;98257.22;10547544;28;20501;-78
2023/05/17 11:06:09;;;;;;;6.03;1.73;;;;;;;22.11;29.61;98247.78;10528027;28;20495;-76
2023/05/17 11:12:04;;;;;;;8.82;2.47;;;;;;;21.99;27.52;98248.81;10544054;28;20064;-82
2023/05/17 11:17:27;;;;;;;6.35;2.58;;;;;;;21.14;28.18;98246.06;10518276;28;20131;-81
2023/05/17 11:22:57;;;;;;;5.20;1.85;;;;;;;20.37;29.07;98241.19;10531287;28;20067;-83
2023/05/17 11:28:19;;;;;;;11.15;2.10;;;;;;;18.81;31.11;98253.34;10528480;28;20492;-81
2023/05/17 11:33:44;;;;;;;9.57;2.78;;;;;;;18.60;32.43;98242.50;10522939;28;20162;-76
2023/05/17 11:39:11;;;;;;;6.40;2.03;;;;;;;18.75;32.44;98243.88;10526334;28;20123;-74
2023/05/17 11:44:33;;;;;;;5.82;1.98;;;;;;;18.71;32.57;98255.00;10543273;28;20063;-73
2023/05/17 11:49:55;;;;;;;8.07;2.38;;;;;;;18.57;32.63;98267.13;10543443;28;20482;-75
2023/05/17 11:55:16;;;;;;;7.73;2.30;;;;;;;18.02;32.70;98261.81;10543787;28;20128;-74
2023/05/17 12:00:40;;;;;;;7.75;2.75;;;;;;;17.51;34.19;98258.66;10540854;28;20043;-75
2023/05/17 12:06:05;;;;;;;4.15;1.75;;;;;;;18.88;34.10;98272.03;10520930;28;20439;-75
2023/05/17 12:11:26;;;;;;;6.45;1.98;;;;;;;20.24;33.14;98265.50;10541683;28;20446;-75
2023/05/17 12:16:51;;;;;;;7.78;1.80;;;;;;;19.55;31.80;98274.13;10521701;28;20155;-75
2023/05/17 12:22:12;;;;;;;5.35;1.92;;;;;;;18.75;32.22;98267.22;10528087;28;20063;-76
2023/05/17 12:27:33;;;;;;;8.00;1.80;;;;;;;18.90;32.05;98270.66;10522234;28;20405;-76
2023/05/17 12:32:54;;;;;;;5.88;1.67;;;;;;;18.54;32.38;98274.06;10514077;28;20417;-76
2023/05/17 12:38:15;;;;;;;5.45;1.52;;;;;;;17.61;32.75;98284.53;10541699;28;20036;-76
2023/05/17 12:43:37;;;;;;;5.55;1.60;;;;;;;17.24;33.59;98303.84;10521993;28;20402;-76
2023/05/17 12:49:08;;;;;;;6.57;1.60;;;;;;;16.90;34.31;98300.03;10525190;28;20489;-82
2023/05/17 12:54:29;;;;;;;7.25;2.13;;;;;;;16.82;35.09;98297.50;10526196;28;20070;-78
2023/05/17 12:59:53;;;;;;;7.03;1.80;;;;;;;17.51;35.01;98303.06;10547692;28;20168;-79
2023/05/17 13:05:22;;;;;;;6.10;2.00;;;;;;;17.79;34.60;98279.06;10570314;28;20473;-76
2023/05/17 13:10:43;;;;;;;9.25;2.05;;;;;;;18.36;34.06;98272.50;10534005;28;20107;-75
2023/05/17 13:16:05;;;;;;;5.38;2.30;;;;;;;18.55;33.90;98272.69;10553725;28;20051;-85
2023/05/17 13:21:26;;;;;;;5.22;2.25;;;;;;;18.23;33.15;98276.88;10527174;28;20036;-72
2023/05/17 13:26:47;;;;;;;4.63;2.13;;;;;;;17.97;33.50;98279.94;10541287;28;20070;-76
2023/05/17 13:32:10;;;;;;;5.28;2.40;;;;;;;18.02;33.57;98275.19;10513003;28;20036;-73
2023/05/17 13:37:31;;;;;;;7.45;2.40;;;;;;;18.41;33.78;98274.88;10512703;28;20115;-75
2023/05/17 13:42:52;;;;;;;5.43;2.35;;;;;;;18.72;32.78;98281.91;10526465;28;20063;-75
2023/05/17 13:48:13;;;;;;;4.65;2.17;;;;;;;18.98;32.50;98263.25;10540347;28;20067;-82
2023/05/17 13:53:33;;;;;;;8.80;2.40;;;;;;;18.20;33.00;98272.50;10562930;28;20090;-72
2023/05/17 13:58:54;;;;;;;10.98;2.38;;;;;;;17.77;33.58;98266.97;10508872;28;20451;-72
2023/05/17 14:04:15;;;;;;;9.52;2.58;;;;;;;17.51;33.87;98274.84;10517974;28;20052;-79
2023/05/17 14:09:36;;;;;;;8.43;2.70;;;;;;;17.62;34.23;98279.63;10510520;28;20047;-75
2023/05/17 14:14:57;;;;;;;7.40;2.05;;;;;;;17.84;34.07;98277.16;10510310;28;20074;-75
2023/05/17 14:20:18;;;;;;;7.03;2.20;;;;;;;17.65;33.77;98269.88;10523835;28;20044;-72
2023/05/17 14:25:42;;;;;;;7.82;2.42;;;;;;;17.29;34.22;98268.84;10507906;28;20583;-73
2023/05/17 14:31:05;;;;;;;9.85;1.88;;;;;;;17.78;34.38;98268.41;10523947;28;20096;-67
2023/05/17 14:36:26;;;;;;;7.00;1.90;;;;;;;17.85;33.50;98279.34;10538854;28;20072;-67
2023/05/17 14:41:57;;;;;;;7.75;2.30;;;;;;;17.59;33.51;98286.53;10539096;28;20067;-69
2023/05/17 14:47:20;;;;;;;9.73;1.88;;;;;;;17.32;33.28;98285.25;10524731;28;20067;-71
2023/05/17 14:52:41;;;;;;;8.90;2.05;;;;;;;17.37;33.50;98288.97;10538514;28;20075;-70
2023/05/17 14:58:02;;;;;;;7.18;1.70;;;;;;;17.37;33.76;98289.75;10524165;28;20489;-70
2023/05/17 15:03:23;;;;;;;5.82;1.80;;;;;;;17.06;33.54;98289.56;10523750;28;20454;-76
2023/05/17 15:08:44;;;;;;;8.80;1.60;;;;;;;16.73;33.80;98299.19;10538045;28;20045;-77
2023/05/17 15:14:05;;;;;;;8.02;1.90;;;;;;;16.63;34.43;98301.44;10537700;28;20060;-71
2023/05/17 15:19:26;;;;;;;8.32;1.88;;;;;;;16.29;34.24;98305.97;10523606;28;20044;-72
2023/05/17 15:24:47;;;;;;;7.40;1.98;;;;;;;16.12;34.70;98310.00;10523741;28;20145;-81
2023/05/17 15:30:08;;;;;;;6.80;1.58;;;;;;;16.17;34.98;98320.13;10523772;28;20044;-71
2023/05/17 15:35:32;;;;;;;8.77;1.92;;;;;;;15.99;35.14;98324.75;10537958;28;20048;-73
2023/05/17 15:41:03;;;;;;;10.05;1.50;;;;;;;15.61;35.26;98318.41;10539142;28;20397;-72
2023/05/17 15:46:24;;;;;;;7.35;1.50;;;;;;;15.40;35.83;98313.69;10547683;28;20044;-72
2023/05/17 15:51:45;;;;;;;10.25;2.20;;;;;;;15.38;35.74;98307.94;10536331;28;20481;-71
2023/05/17 15:57:07;;;;;;;11.27;2.13;;;;;;;15.22;35.73;98306.25;10544944;28;20094;-71
2023/05/17 16:02:29;;;;;;;7.18;1.52;;;;;;;15.10;36.04;98307.03;10530895;28;20044;-74
2023/05/17 16:07:50;;;;;;;7.63;2.17;;;;;;;15.02;36.12;98317.78;10516754;28;20119;-74
2023/05/17 16:13:11;;;;;;;6.45;1.60;;;;;;;14.93;36.36;98326.34;10554582;28;20498;-79
2023/05/17 16:19:03;;;;;;;5.45;1.70;;;;;;;14.87;36.27;98337.97;10542289;28;20406;-69
2023/05/17 16:24:24;;;;;;;7.05;1.70;;;;;;;14.79;36.51;98340.31;10530323;28;20067;-71
2023/05/17 16:29:45;;;;;;;6.75;1.65;;;;;;;14.68;36.53;98352.28;10543904;28;20162;-71
2023/05/17 16:35:06;;;;;;;5.43;1.45;;;;;;;14.73;36.65;98345.53;10556929;28;20040;-71
2023/05/17 16:40:27;;;;;;;8.27;1.48;;;;;;;14.55;36.84;98362.75;10529166;28;20161;-67
2023/05/17 16:45:51;;;;;;;7.03;1.42;;;;;;;14.47;37.38;98379.09;10514900;28;20040;-71
2023/05/17 16:51:11;;;;;;;8.40;1.67;;;;;;;14.32;37.16;98385.88;10515184;28;20099;-70
2023/05/17 16:56:32;;;;;;;9.50;1.50;;;;;;;14.22;37.37;98384.50;10557694;28;20062;-71
2023/05/17 17:01:53;;;;;;;4.70;1.17;;;;;;;14.12;37.76;98384.59;10527961;28;20126;-71
2023/05/17 17:07:13;;;;;;;7.75;1.30;;;;;;;13.97;37.84;98382.94;10514347;28;20047;-72
2023/05/17 17:12:40;;;;;;;3.97;1.30;;;;;;;13.83;38.16;98379.22;10515423;28;20054;-71
2023/05/17 17:18:00;;;;;;;7.50;1.50;;;;;;;13.62;38.78;98384.88;10547745;28;20079;-78
2023/05/17 17:23:21;;;;;;;7.97;1.73;;;;;;;13.56;39.35;98388.00;10557060;28;20036;-80
2023/05/17 17:28:42;;;;;;;8.90;1.35;;;;;;;13.46;39.19;98388.06;11026682;22;20035;-80
2023/05/17 17:34:04;;;;;;;7.22;1.40;;;;;;;13.49;39.46;98388.19;10573774;28;20382;-74
2023/05/17 17:39:25;;;;;;;9.88;1.38;;;;;;;13.43;39.60;98391.34;10526853;28;20040;-72
2023/05/17 17:44:45;;;;;;;5.07;1.48;;;;;;;13.27;39.66;98399.38;10544575;28;20040;-72
2023/05/17 17:50:06;;;;;;;7.82;1.45;;;;;;;13.13;40.42;98404.75;10540409;28;20055;-72
2023/05/17 17:55:27;;;;;;;7.32;1.42;;;;;;;12.97;40.60;98409.25;10527729;28;20064;-76
2023/05/17 18:00:49;;;;;;;5.97;1.45;;;;;;;12.96;41.02;98418.25;10524969;28;20056;-73
2023/05/17 18:06:10;;;;;;;7.53;1.70;;;;;;;12.96;41.20;98415.44;10515298;28;20501;-78
2023/05/17 18:11:31;;;;;;;5.55;2.00;;;;;;;12.93;41.31;98413.81;10532532;28;20032;-74
2023/05/17 18:16:52;;;;;;;7.13;1.80;;;;;;;12.94;41.45;98426.53;10542567;28;20059;-73
2023/05/17 18:22:15;;;;;;;7.13;1.92;;;;;;;12.84;41.40;98427.28;10511207;28;20093;-72
2023/05/17 18:27:36;;;;;;;10.00;2.13;;;;;;;12.76;41.77;98435.13;10524256;28;20058;-69
2023/05/17 18:32:57;;;;;;;8.07;2.45;;;;;;;12.60;42.16;98437.50;10573976;28;20067;-70
2023/05/17 18:38:18;;;;;;;9.40;1.98;;;;;;;12.59;42.33;98443.72;10566448;28;20105;-71
2023/05/17 18:43:38;;;;;;;8.23;2.00;;;;;;;12.53;42.55;98451.69;10552565;28;20386;-67
2023/05/17 18:48:59;;;;;;;5.70;1.58;;;;;;;12.46;42.53;98469.41;10515673;28;20063;-69
2023/05/17 18:54:20;;;;;;;10.10;2.20;;;;;;;12.45;42.84;98467.91;10539222;28;20124;-68
2023/05/17 18:59:40;;;;;;;6.03;1.63;;;;;;;12.42;43.01;98469.81;10510233;28;20064;-67
2023/05/17 19:05:01;;;;;;;9.88;1.92;;;;;;;12.33;43.00;98468.50;10523863;28;20463;-69
2023/05/17 19:10:22;;;;;;;8.77;1.83;;;;;;;12.35;43.25;98469.97;10536047;28;20147;-69
2023/05/17 19:15:42;;;;;;;6.97;1.73;;;;;;;12.27;43.32;98470.16;10543710;28;20116;-76
2023/05/17 19:21:03;;;;;;;9.60;1.42;;;;;;;12.24;43.75;98474.09;10518681;28;20051;-73
2023/05/17 19:26:24;;;;;;;5.88;1.55;;;;;;;12.13;43.82;98488.69;10561442;28;20082;-72
2023/05/17 19:31:44;;;;;;;9.52;2.17;;;;;;;12.08;44.02;98487.66;10528833;28;20056;-73
2023/05/17 19:37:05;;;;;;;7.65;1.40;;;;;;;12.03;43.97;98491.47;10530293;28;20108;-73
2023/05/17 19:42:26;;;;;;;10.27;2.13;;;;;;;11.97;44.04;98493.84;10543196;28;20044;-74
2023/05/17 19:47:47;;;;;;;10.57;1.77;;;;;;;11.93;44.27;98496.34;10555506;28;20070;-74
2023/05/17 19:53:07;;;;;;;7.85;1.88;;;;;;;11.87;44.10;98495.88;10556209;28;20069;-74
2023/05/17 19:58:28;;;;;;;10.13;1.70;;;;;;;11.78;44.44;98494.53;10561790;28;20068;-74
2023/05/17 20:03:49;;;;;;;5.82;1.83;;;;;;;11.73;44.58;98487.88;10511524;28;20122;-74
2023/05/17 20:09:10;;;;;;;7.45;1.83;;;;;;;11.68;44.92;98497.31;10523114;28;20074;-74
2023/05/17 20:14:31;;;;;;;9.48;2.13;;;;;;;11.61;44.57;98489.03;10508334;28;20119;-74
2023/05/17 20:19:52;;;;;;;7.35;1.65;;;;;;;11.56;45.22;98490.78;10544028;28;20166;-74
2023/05/17 20:25:13;;;;;;;8.07;2.28;;;;;;;11.49;45.26;98486.06;10544103;28;20482;-74
2023/05/17 20:30:34;;;;;;;6.72;2.17;;;;;;;11.49;45.40;98497.25;10542669;28;20055;-74
2023/05/17 20:35:56;;;;;;;8.88;2.40;;;;;;;11.44;45.55;98495.44;10529520;28;20466;-74
2023/05/17 20:41:17;;;;;;;9.25;2.58;;;;;;;11.38;45.56;98494.97;10529246;28;20071;-74
2023/05/17 20:46:37;;;;;;;9.88;2.70;;;;;;;11.32;45.81;98500.88;10515229;28;20158;-74
2023/05/17 20:52:02;;;;;;;9.05;3.40;;;;;;;11.28;45.94;98499.78;10528932;28;20123;-74
2023/05/17 20:57:22;;;;;;;10.85;2.55;;;;;;;11.22;45.94;98497.28;10528656;28;20072;-74
2023/05/17 21:02:43;;;;;;;7.40;2.22;;;;;;;11.18;46.15;98514.47;10514669;28;20126;-74
2023/05/17 21:08:06;;;;;;;9.50;2.30;;;;;;;11.15;46.38;98498.88;10514228;28;20100;-74
2023/05/17 21:13:27;;;;;;;7.70;2.40;;;;;;;11.06;46.30;98501.63;10514273;28;20502;-74
2023/05/17 21:18:47;;;;;;;9.90;2.47;;;;;;;11.04;46.51;98504.25;10513459;28;20500;-74
2023/05/17 21:24:09;;;;;;;9.65;2.60;;;;;;;10.99;46.70;98503.19;10527643;28;20143;-74
2023/05/17 21:29:29;;;;;;;7.22;2.17;;;;;;;10.93;46.91;98511.13;10527037;28;20052;-74
2023/05/17 21:34:50;;;;;;;10.85;2.38;;;;;;;10.84;46.75;98509.00;10541265;28;20129;-74
2023/05/17 21:40:13;;;;;;;8.93;2.17;;;;;;;10.77;47.29;98504.25;10526121;28;20090;-74
2023/05/17 21:45:34;;;;;;;9.23;2.20;;;;;;;10.71;47.12;98500.97;10540686;28;20060;-74
2023/05/17 21:50:55;;;;;;;8.60;2.63;;;;;;;10.68;47.39;98502.13;10541560;28;20075;-74
2023/05/17 21:56:15;;;;;;;11.77;2.13;;;;;;;10.58;47.43;98493.69;10512166;28;20497;-74
2023/05/17 22:01:36;;;;;;;9.93;2.17;;;;;;;10.53;47.59;98495.44;10512097;28;20115;-73
2023/05/17 22:06:57;;;;;;;7.65;1.90;;;;;;;10.41;47.77;98500.03;10525858;28;20089;-74
2023/05/17 22:12:23;;;;;;;8.95;1.70;;;;;;;10.33;47.71;98496.63;10511852;28;20100;-74
2023/05/17 22:17:46;;;;;;;5.80;2.00;;;;;;;10.26;47.72;98497.44;10526502;28;20115;-73
2023/05/17 22:23:12;;;;;;;7.53;1.88;;;;;;;10.21;48.08;98501.91;10526191;28;20497;-74
2023/05/17 22:28:33;;;;;;;10.70;2.03;;;;;;;10.15;48.63;98500.69;10525271;28;20147;-74
2023/05/17 22:33:54;;;;;;;9.90;2.67;;;;;;;10.12;48.19;98505.34;10525380;28;20489;-73
2023/05/17 22:39:14;;;;;;;8.13;2.15;;;;;;;10.06;48.67;98501.34;10538864;28;20072;-73
2023/05/17 22:44:35;;;;;;;11.45;2.28;;;;;;;10.06;49.03;98504.88;10496967;28;20048;-73
2023/05/17 22:49:56;;;;;;;7.28;1.95;;;;;;;10.06;48.85;98515.28;10538258;28;20044;-73
2023/05/17 22:55:17;;;;;;;8.38;2.30;;;;;;;10.02;49.17;98507.31;10510868;28;20063;-73
2023/05/17 23:00:37;;;;;;;9.95;2.08;;;;;;;10.04;49.45;98504.72;10510316;28;20173;-73
2023/05/17 23:06:01;;;;;;;9.35;1.98;;;;;;;10.07;49.41;98505.63;10524133;28;20067;-74
2023/05/17 23:11:22;;;;;;;7.85;2.13;;;;;;;10.03;49.55;98506.75;10539549;28;20071;-73
2023/05/17 23:16:44;;;;;;;13.63;2.90;;;;;;;10.06;49.06;98506.94;10538123;28;20063;-74
2023/05/17 23:22:05;;;;;;;5.93;1.38;;;;;;;10.04;49.61;98505.47;10538219;28;20406;-73
2023/05/17 23:27:26;;;;;;;5.85;1.60;;;;;;;10.01;49.70;98509.38;10523967;28;20040;-73
2023/05/17 23:32:50;;;;;;;8.80;1.70;;;;;;;10.00;49.91;98502.31;10509776;28;20578;-73
2023/05/17 23:38:11;;;;;;;11.52;1.98;;;;;;;9.95;49.95;98503.31;10510511;28;20161;-73
2023/05/17 23:43:33;;;;;;;9.25;1.90;;;;;;;9.92;50.23;98495.34;10537629;28;20064;-73
2023/05/17 23:48:56;;;;;;;10.57;1.85;;;;;;;9.92;50.30;98509.28;10523885;28;20190;-73
2023/05/17 23:54:17;;;;;;;8.15;1.50;;;;;;;9.89;50.25;98505.59;10510019;28;20077;-74
2023/05/17 23:59:37;;;;;;;9.57;1.90;;;;;;;9.84;50.54;98506.56;10523341;28;20493;-73
